Bremen — C6JC3 — position and weather

sailwx.info

Track history (hours):
 
Tides and Currents Weather Stations Pressure Air Temp Water Temp Dewpoint Dewpoint Depression Visibility Wind Speed Wind Dir Waves Ship Positions

Bremen

Operator: Hapag-Lloyd Container Line

Last reported at 2017-Oct-19 11:00 UTC. Time now 2017-Oct-20 03:37 UTC.
Position N 32°36' W 016°54'.

Length 111.5 m; beam 17 m; draft 4.8 m.

Type: Ship. MMSI: 308429000.

Barometer 1023.0 mb
Air temperature 23.0 ° C
Visibility: greater than 10.8 NM
Dewpoint 17.7 ° C
Water temperature 23.0 ° C

Date/timePositionNaut miles runAvg speedWind from/ knotsBaromVisibWave heightAir tempDewpointWater temp
2017-Oct-19 11:00N 32°36' W 016°54'0 0.0 1023.010.8 23.017.723.0
2017-Oct-18 13:00N 32°36' W 016°54'30812.3 240 / 81022.010.8 22.519.723.0
2017-Oct-17 12:00N 35°30' W 022°00'9713.8 340 / 161024.010.8 23.015.323.0
2017-Oct-17 04:56N 36°27' W 023°37'613.2
2017-Oct-17 04:30N 36°31' W 023°43'713.1
2017-Oct-17 04:00N 36°34' W 023°49'713.6
2017-Oct-17 03:30N 36°38' W 023°56'714.0
2017-Oct-17 03:01N 36°42' W 024°03'714.5
2017-Oct-17 02:31N 36°47' W 024°11'714.6
2017-Oct-17 02:00N 36°51' W 024°18'714.5
2017-Oct-17 01:31N 36°55' W 024°25'714.6
2017-Oct-17 01:00N 36°60' W 024°33'714.6
2017-Oct-17 00:31N 37°04' W 024°40'714.6
2017-Oct-17 00:00N 37°08' W 024°48'714.8
2017-Oct-16 23:30N 37°12' W 024°55'714.6
2017-Oct-16 23:00N 37°17' W 025°03'714.4
2017-Oct-16 22:31N 37°21' W 025°10'714.5
2017-Oct-16 22:01N 37°25' W 025°17'714.8
2017-Oct-16 21:30N 37°29' W 025°25'714.7
2017-Oct-16 21:01N 37°34' W 025°32'815.0
2017-Oct-16 20:31N 37°38' W 025°40'714.8
2017-Oct-16 20:01N 37°42' W 025°48'714.7
2017-Oct-16 19:30N 37°47' W 025°55'714.7
2017-Oct-16 19:01N 37°51' W 026°03'714.6
2017-Oct-16 18:30N 37°55' W 026°10'815.0
2017-Oct-16 18:00N 37°60' W 026°18'815.1
2017-Oct-16 17:31N 38°04' W 026°26'815.0
2017-Oct-16 17:01N 38°08' W 026°33'714.7
2017-Oct-16 16:31N 38°14' W 026°40'815.0
2017-Oct-16 16:00N 38°20' W 026°45'714.9
2017-Oct-16 15:30N 38°27' W 026°50'815.2
2017-Oct-16 15:00N 38°33' W 026°54'815.3
2017-Oct-16 14:30N 38°40' W 026°59'4 3.6
2017-Oct-16 13:18N 38°43' W 027°03'0 0.0
2017-Oct-16 12:48N 38°43' W 027°03'0 0.0
2017-Oct-16 12:24N 38°43' W 027°03'0 0.0
2017-Oct-16 11:54N 38°43' W 027°03'0 0.0
2017-Oct-16 11:30N 38°43' W 027°03'0 0.0
2017-Oct-16 11:00N 38°43' W 027°03'0 0.0
2017-Oct-16 10:30N 38°43' W 027°03'0 0.0
2017-Oct-16 10:00N 38°43' W 027°03'0 0.0
2017-Oct-16 09:30N 38°43' W 027°03'0 0.0
2017-Oct-16 09:00N 38°43' W 027°03'0 0.0
2017-Oct-16 08:30N 38°43' W 027°03'0 0.0
2017-Oct-16 08:00N 38°43' W 027°03'0 0.0
2017-Oct-16 07:30N 38°43' W 027°03'1 1.7
2017-Oct-16 07:00N 38°43' W 027°02'5 5.6
2017-Oct-16 06:06N 38°38' W 027°02'14 9.1
2017-Oct-16 04:32N 38°32' W 027°19'0 9.5
2017-Oct-16 04:30N 38°32' W 027°19'5 9.7
2017-Oct-16 04:00N 38°30' W 027°25'5 9.8
2017-Oct-16 03:31N 38°29' W 027°31'5 9.8
2017-Oct-16 03:00N 38°29' W 027°37'5 9.4
2017-Oct-16 02:30N 38°28' W 027°43'5 9.0
2017-Oct-16 02:01N 38°28' W 027°49'5 9.5
2017-Oct-16 01:30N 38°29' W 027°55'5 9.5
2017-Oct-16 01:01N 38°30' W 028°00'611.1
2017-Oct-16 00:30N 38°33' W 028°07'612.0
2017-Oct-16 00:00N 38°35' W 028°14'510.4
2017-Oct-15 23:31N 38°37' W 028°20'14 1.2
2017-Oct-15 12:00N 38°30' W 028°36'3 0.1 360 / 61024.010.8 19.512.521.5
2017-Oct-14 17:41N 38°32' W 028°37'0 0.0
2017-Oct-14 15:45N 38°32' W 028°37'1 0.1
2017-Oct-14 07:31N 38°32' W 028°37'1 4.2
2017-Oct-14 07:17N 38°31' W 028°36'16 8.8
2017-Oct-14 05:27N 38°21' W 028°19'612.3
2017-Oct-14 04:56N 38°20' W 028°12'512.4
2017-Oct-14 04:30N 38°18' W 028°05'612.4
2017-Oct-14 04:00N 38°16' W 027°58'612.4
2017-Oct-14 03:30N 38°14' W 027°50'612.7
2017-Oct-14 03:00N 38°13' W 027°43'713.2
2017-Oct-14 02:29N 38°11' W 027°34'613.3
2017-Oct-14 02:01N 38°09' W 027°27'713.0
2017-Oct-14 01:30N 38°07' W 027°19'713.2
2017-Oct-14 01:00N 38°05' W 027°11'713.3
2017-Oct-14 00:30N 38°03' W 027°02'713.3
2017-Oct-14 00:00N 38°01' W 026°54'713.2
2017-Oct-13 23:31N 37°59' W 026°47'713.0
2017-Oct-13 23:01N 37°57' W 026°39'713.2
2017-Oct-13 22:31N 37°55' W 026°31'713.3
2017-Oct-13 22:00N 37°53' W 026°23'713.5
2017-Oct-13 21:30N 37°51' W 026°14'713.1
2017-Oct-13 21:01N 37°49' W 026°06'713.1
2017-Oct-13 20:30N 37°47' W 025°59'713.1
2017-Oct-13 20:00N 37°45' W 025°51'612.8
2017-Oct-13 19:31N 37°43' W 025°43'3 5.7
2017-Oct-13 19:00N 37°44' W 025°40'0 0.2
2017-Oct-13 18:29N 37°44' W 025°40'0 0.0
2017-Oct-13 17:59N 37°44' W 025°40'0 0.0
2017-Oct-13 17:29N 37°44' W 025°40'0 0.0
2017-Oct-13 17:00N 37°44' W 025°40'0 0.0
2017-Oct-13 16:30N 37°44' W 025°40'0 0.0
2017-Oct-13 15:59N 37°44' W 025°40'0 0.0
2017-Oct-13 15:29N 37°44' W 025°40'0 0.0
2017-Oct-13 15:00N 37°44' W 025°40'0 0.0
2017-Oct-13 14:29N 37°44' W 025°40'0 0.0
2017-Oct-13 14:00N 37°44' W 025°40'0 0.0
2017-Oct-13 13:29N 37°44' W 025°40'0 0.0
2017-Oct-13 13:00N 37°44' W 025°40'0 0.0
2017-Oct-13 12:29N 37°44' W 025°40'4 7.4
2017-Oct-13 12:00N 37°42' W 025°36'43330.0 150 / 41019.010.8 24.520.223.0
2017-Oct-13 11:59N 37°44' W 025°40'0 0.0
2017-Oct-13 11:29N 37°44' W 025°40'0 0.0
2017-Oct-13 10:59N 37°44' W 025°40'0 0.0
2017-Oct-13 10:29N 37°44' W 025°40'0 0.0
2017-Oct-13 09:58N 37°44' W 025°40'0 0.0
2017-Oct-13 09:29N 37°44' W 025°40'0 0.0
2017-Oct-13 08:59N 37°44' W 025°40'0 0.0
2017-Oct-13 08:28N 37°44' W 025°40'0 0.2
2017-Oct-13 08:00N 37°44' W 025°40'2 3.4
2017-Oct-13 07:30N 37°43' W 025°38'3 5.9
2017-Oct-13 07:00N 37°42' W 025°35'4 8.5
2017-Oct-13 06:30N 37°40' W 025°30'510.8
2017-Oct-13 06:00N 37°41' W 025°23'510.8
2017-Oct-13 05:30N 37°41' W 025°16'510.5
2017-Oct-13 05:00N 37°41' W 025°09'510.7
2017-Oct-13 04:30N 37°42' W 025°03'510.7
2017-Oct-13 04:00N 37°42' W 024°56'510.8
2017-Oct-13 03:30N 37°42' W 024°49'611.3
2017-Oct-13 03:00N 37°43' W 024°42'611.3
2017-Oct-13 02:30N 37°43' W 024°35'611.4
2017-Oct-13 02:00N 37°43' W 024°28'612.2
2017-Oct-13 01:30N 37°44' W 024°20'612.5
2017-Oct-13 01:01N 37°44' W 024°12'612.4
2017-Oct-13 00:30N 37°45' W 024°04'612.6
2017-Oct-13 00:00N 37°45' W 023°56'612.6
2017-Oct-12 23:30N 37°45' W 023°48'612.5
2017-Oct-12 23:00N 37°46' W 023°40'612.6
2017-Oct-12 22:31N 37°46' W 023°32'712.7
2017-Oct-12 21:59N 37°47' W 023°24'612.6
2017-Oct-12 21:30N 37°47' W 023°16'612.8
2017-Oct-12 21:00N 37°47' W 023°08'712.8
2017-Oct-12 20:30N 37°48' W 023°00'612.4
2017-Oct-12 20:00N 37°48' W 022°53'612.7
2017-Oct-12 19:30N 37°49' W 022°44'612.9
2017-Oct-12 19:00N 37°49' W 022°36'713.4
2017-Oct-12 18:30N 37°50' W 022°28'713.4
2017-Oct-12 18:00N 37°50' W 022°19'713.4
2017-Oct-12 17:30N 37°51' W 022°11'713.5
2017-Oct-12 17:00N 37°51' W 022°02'713.6
2017-Oct-12 16:28N 37°52' W 021°53'613.7
2017-Oct-12 16:00N 37°52' W 021°45'713.7
2017-Oct-12 15:30N 37°52' W 021°36'713.6
2017-Oct-12 15:00N 37°53' W 021°28'713.7
2017-Oct-12 14:30N 37°53' W 021°19'713.7
2017-Oct-12 14:00N 37°54' W 021°11'713.7
2017-Oct-12 13:30N 37°54' W 021°02'713.9
2017-Oct-12 13:00N 37°55' W 020°53'713.8
2017-Oct-12 12:30N 37°55' W 020°44'713.9
2017-Oct-12 12:00N 37°55' W 020°36'5284.2
2017-Oct-12 12:00N 37°54' W 020°30'3 6.0 110 / 101022.010.8 22.017.622.5
2017-Oct-12 11:29N 37°56' W 020°27'713.8
2017-Oct-12 11:00N 37°56' W 020°18'713.9
2017-Oct-12 10:30N 37°57' W 020°10'813.9
2017-Oct-12 09:55N 37°57' W 019°59'613.8
2017-Oct-12 09:30N 37°58' W 019°52'713.8
2017-Oct-12 09:00N 37°58' W 019°43'1613.5
2017-Oct-12 07:50N 37°59' W 019°23'613.5
2017-Oct-12 07:25N 37°60' W 019°16'613.4
2017-Oct-12 07:00N 38°00' W 019°09'713.5
2017-Oct-12 06:30N 38°01' W 019°01'1013.4
2017-Oct-12 05:47N 38°01' W 018°49'1013.4
2017-Oct-12 05:01N 38°02' W 018°35'0 9.1
2017-Oct-12 05:00N 38°02' W 018°35'713.4
2017-Oct-12 04:30N 38°02' W 018°27'713.2
2017-Oct-12 04:00N 38°03' W 018°18'713.6
2017-Oct-12 03:31N 38°03' W 018°10'713.9
2017-Oct-12 03:00N 38°03' W 018°01'913.2
2017-Oct-12 02:18N 38°04' W 017°49'413.5
2017-Oct-12 02:00N 38°04' W 017°44'713.3
2017-Oct-12 01:30N 38°05' W 017°36'713.2
2017-Oct-12 01:00N 38°05' W 017°27'713.0
2017-Oct-12 00:30N 38°06' W 017°19'813.1
2017-Oct-11 23:55N 38°06' W 017°09'4013.2
2017-Oct-11 20:52N 38°09' W 016°18'1113.2
2017-Oct-11 20:02N 38°10' W 016°04'113.2
2017-Oct-11 19:59N 38°10' W 016°04'813.5
2017-Oct-11 19:23N 38°10' W 015°53'613.8
2017-Oct-11 18:58N 38°11' W 015°46'2613.5
2017-Oct-11 17:02N 38°12' W 015°13'012.4
2017-Oct-11 17:00N 38°12' W 015°12'22913.5
2017-Oct-11 00:00N 38°27' W 010°21'713.6
2017-Oct-10 23:30N 38°28' W 010°12'713.0
2017-Oct-10 23:00N 38°29' W 010°04'510.4
2017-Oct-10 22:30N 38°30' W 009°57'713.2
2017-Oct-10 22:00N 38°32' W 009°49'510.2
2017-Oct-10 21:30N 38°33' W 009°43'713.4
2017-Oct-10 21:00N 38°34' W 009°35'713.5
2017-Oct-10 20:30N 38°36' W 009°26'713.3
2017-Oct-10 20:00N 38°40' W 009°19'612.6
2017-Oct-10 19:31N 38°41' W 009°11'4 7.1
2017-Oct-10 19:01N 38°43' W 009°07'0 0.0
2017-Oct-10 18:30N 38°43' W 009°07'0 0.0
2017-Oct-10 18:00N 38°43' W 009°07'0 0.0
2017-Oct-10 17:30N 38°43' W 009°07'0 0.0
2017-Oct-10 16:57N 38°43' W 009°07'0 0.0
2017-Oct-10 16:30N 38°43' W 009°07'0 0.0
2017-Oct-10 16:00N 38°43' W 009°07'0 0.0
2017-Oct-10 15:30N 38°43' W 009°07'0 0.0
2017-Oct-10 15:00N 38°43' W 009°07'0 0.0
2017-Oct-10 14:00N 38°43' W 009°07'0 0.0
2017-Oct-10 13:30N 38°43' W 009°07'0 0.0
2017-Oct-10 12:57N 38°43' W 009°07'0 0.0
2017-Oct-10 12:30N 38°43' W 009°07'1 2.5
2017-Oct-10 12:00N 38°42' W 009°06'114.1 1021.0 2.2 19.012.017.0
2017-Oct-10 11:54N 38°43' W 009°07'0 0.0
2017-Oct-10 11:30N 38°43' W 009°07'0 0.0
2017-Oct-10 10:57N 38°43' W 009°07'0 0.0
2017-Oct-10 10:27N 38°43' W 009°07'0 0.0
2017-Oct-10 09:59N 38°43' W 009°07'0 0.0
2017-Oct-10 09:29N 38°43' W 009°07'0 0.0
2017-Oct-10 08:58N 38°43' W 009°07'0 0.0
2017-Oct-10 08:27N 38°43' W 009°07'0 0.0
2017-Oct-10 08:00N 38°43' W 009°07'0 0.0
2017-Oct-10 07:30N 38°43' W 009°07'0 0.2
2017-Oct-10 07:00N 38°43' W 009°07'3 5.3
2017-Oct-10 06:30N 38°41' W 009°10'3 6.7
2017-Oct-10 06:00N 38°41' W 009°14'510.4
2017-Oct-10 05:30N 38°39' W 009°20'3 6.6
2017-Oct-10 05:00N 38°39' W 009°25'5 9.1
2017-Oct-10 04:30N 38°39' W 009°30'510.8
2017-Oct-10 04:00N 38°39' W 009°37'5 9.5
2017-Oct-10 03:30N 38°42' W 009°42'612.0
2017-Oct-10 03:00N 38°48' W 009°42'612.2
2017-Oct-10 02:30N 38°54' W 009°43'612.9
2017-Oct-10 02:00N 39°01' W 009°44'612.6
2017-Oct-10 01:30N 39°07' W 009°44'713.0
2017-Oct-10 01:00N 39°13' W 009°44'613.0
2017-Oct-10 00:30N 39°20' W 009°45'612.9
2017-Oct-10 00:00N 39°26' W 009°45'714.2
2017-Oct-09 23:30N 39°33' W 009°44'1313.3
2017-Oct-09 22:30N 39°46' W 009°39'713.1
2017-Oct-09 21:58N 39°53' W 009°35'613.1
2017-Oct-09 21:30N 39°58' W 009°33'713.5
2017-Oct-09 21:00N 40°05' W 009°31'713.4
2017-Oct-09 20:30N 40°11' W 009°29'713.5
2017-Oct-09 20:00N 40°18' W 009°26'1313.4
2017-Oct-09 19:00N 40°31' W 009°20'612.7
2017-Oct-09 18:30N 40°37' W 009°18'713.2
2017-Oct-09 18:01N 40°43' W 009°15'813.1
2017-Oct-09 17:24N 40°50' W 009°12'513.2
2017-Oct-09 17:01N 40°55' W 009°10'713.2
2017-Oct-09 16:30N 41°02' W 009°08'613.0
2017-Oct-09 16:01N 41°08' W 009°05'712.9
2017-Oct-09 15:30N 41°14' W 009°02'  
Track history (hours):
 
Tides and Currents Weather Stations Pressure Air Temp Water Temp Dewpoint Dewpoint Depression Visibility Wind Speed Wind Dir Waves Ship Positions

Bremen

Operator: Hapag-Lloyd Container Line

Last reported at 2017-Oct-19 11:00 UTC. Time now 2017-Oct-20 03:37 UTC.
Position N 32°36' W 016°54'.

Length 111.5 m; beam 17 m; draft 4.8 m.

Type: Ship. MMSI: 308429000.

Barometer 1023.0 mb
Air temperature 23.0 ° C
Visibility: greater than 10.8 NM
Dewpoint 17.7 ° C
Water temperature 23.0 ° C

Date/timePositionNaut miles runAvg speedWind from/ knotsBaromVisibWave heightAir tempDewpointWater temp
2017-Oct-19 11:00N 32°36' W 016°54'0 0.0 1023.010.8 23.017.723.0
2017-Oct-18 13:00N 32°36' W 016°54'30812.3 240 / 81022.010.8 22.519.723.0
2017-Oct-17 12:00N 35°30' W 022°00'9713.8 340 / 161024.010.8 23.015.323.0
2017-Oct-17 04:56N 36°27' W 023°37'613.2
2017-Oct-17 04:30N 36°31' W 023°43'713.1
2017-Oct-17 04:00N 36°34' W 023°49'713.6
2017-Oct-17 03:30N 36°38' W 023°56'714.0
2017-Oct-17 03:01N 36°42' W 024°03'714.5
2017-Oct-17 02:31N 36°47' W 024°11'714.6
2017-Oct-17 02:00N 36°51' W 024°18'714.5
2017-Oct-17 01:31N 36°55' W 024°25'714.6
2017-Oct-17 01:00N 36°60' W 024°33'714.6
2017-Oct-17 00:31N 37°04' W 024°40'714.6
2017-Oct-17 00:00N 37°08' W 024°48'714.8
2017-Oct-16 23:30N 37°12' W 024°55'714.6
2017-Oct-16 23:00N 37°17' W 025°03'714.4
2017-Oct-16 22:31N 37°21' W 025°10'714.5
2017-Oct-16 22:01N 37°25' W 025°17'714.8
2017-Oct-16 21:30N 37°29' W 025°25'714.7
2017-Oct-16 21:01N 37°34' W 025°32'815.0
2017-Oct-16 20:31N 37°38' W 025°40'714.8
2017-Oct-16 20:01N 37°42' W 025°48'714.7
2017-Oct-16 19:30N 37°47' W 025°55'714.7
2017-Oct-16 19:01N 37°51' W 026°03'714.6
2017-Oct-16 18:30N 37°55' W 026°10'815.0
2017-Oct-16 18:00N 37°60' W 026°18'815.1
2017-Oct-16 17:31N 38°04' W 026°26'815.0
2017-Oct-16 17:01N 38°08' W 026°33'714.7
2017-Oct-16 16:31N 38°14' W 026°40'815.0
2017-Oct-16 16:00N 38°20' W 026°45'714.9
2017-Oct-16 15:30N 38°27' W 026°50'815.2
2017-Oct-16 15:00N 38°33' W 026°54'815.3
2017-Oct-16 14:30N 38°40' W 026°59'4 3.6
2017-Oct-16 13:18N 38°43' W 027°03'0 0.0
2017-Oct-16 12:48N 38°43' W 027°03'0 0.0
2017-Oct-16 12:24N 38°43' W 027°03'0 0.0
2017-Oct-16 11:54N 38°43' W 027°03'0 0.0
2017-Oct-16 11:30N 38°43' W 027°03'0 0.0
2017-Oct-16 11:00N 38°43' W 027°03'0 0.0
2017-Oct-16 10:30N 38°43' W 027°03'0 0.0
2017-Oct-16 10:00N 38°43' W 027°03'0 0.0
2017-Oct-16 09:30N 38°43' W 027°03'0 0.0
2017-Oct-16 09:00N 38°43' W 027°03'0 0.0
2017-Oct-16 08:30N 38°43' W 027°03'0 0.0
2017-Oct-16 08:00N 38°43' W 027°03'0 0.0
2017-Oct-16 07:30N 38°43' W 027°03'1 1.7
2017-Oct-16 07:00N 38°43' W 027°02'5 5.6
2017-Oct-16 06:06N 38°38' W 027°02'14 9.1
2017-Oct-16 04:32N 38°32' W 027°19'0 9.5
2017-Oct-16 04:30N 38°32' W 027°19'5 9.7
2017-Oct-16 04:00N 38°30' W 027°25'5 9.8
2017-Oct-16 03:31N 38°29' W 027°31'5 9.8
2017-Oct-16 03:00N 38°29' W 027°37'5 9.4
2017-Oct-16 02:30N 38°28' W 027°43'5 9.0
2017-Oct-16 02:01N 38°28' W 027°49'5 9.5
2017-Oct-16 01:30N 38°29' W 027°55'5 9.5
2017-Oct-16 01:01N 38°30' W 028°00'611.1
2017-Oct-16 00:30N 38°33' W 028°07'612.0
2017-Oct-16 00:00N 38°35' W 028°14'510.4
2017-Oct-15 23:31N 38°37' W 028°20'14 1.2
2017-Oct-15 12:00N 38°30' W 028°36'3 0.1 360 / 61024.010.8 19.512.521.5
2017-Oct-14 17:41N 38°32' W 028°37'0 0.0
2017-Oct-14 15:45N 38°32' W 028°37'1 0.1
2017-Oct-14 07:31N 38°32' W 028°37'1 4.2
2017-Oct-14 07:17N 38°31' W 028°36'16 8.8
2017-Oct-14 05:27N 38°21' W 028°19'612.3
2017-Oct-14 04:56N 38°20' W 028°12'512.4
2017-Oct-14 04:30N 38°18' W 028°05'612.4
2017-Oct-14 04:00N 38°16' W 027°58'612.4
2017-Oct-14 03:30N 38°14' W 027°50'612.7
2017-Oct-14 03:00N 38°13' W 027°43'713.2
2017-Oct-14 02:29N 38°11' W 027°34'613.3
2017-Oct-14 02:01N 38°09' W 027°27'713.0
2017-Oct-14 01:30N 38°07' W 027°19'713.2
2017-Oct-14 01:00N 38°05' W 027°11'713.3
2017-Oct-14 00:30N 38°03' W 027°02'713.3
2017-Oct-14 00:00N 38°01' W 026°54'713.2
2017-Oct-13 23:31N 37°59' W 026°47'713.0
2017-Oct-13 23:01N 37°57' W 026°39'713.2
2017-Oct-13 22:31N 37°55' W 026°31'713.3
2017-Oct-13 22:00N 37°53' W 026°23'713.5
2017-Oct-13 21:30N 37°51' W 026°14'713.1
2017-Oct-13 21:01N 37°49' W 026°06'713.1
2017-Oct-13 20:30N 37°47' W 025°59'713.1
2017-Oct-13 20:00N 37°45' W 025°51'612.8
2017-Oct-13 19:31N 37°43' W 025°43'3 5.7
2017-Oct-13 19:00N 37°44' W 025°40'0 0.2
2017-Oct-13 18:29N 37°44' W 025°40'0 0.0
2017-Oct-13 17:59N 37°44' W 025°40'0 0.0
2017-Oct-13 17:29N 37°44' W 025°40'0 0.0
2017-Oct-13 17:00N 37°44' W 025°40'0 0.0
2017-Oct-13 16:30N 37°44' W 025°40'0 0.0
2017-Oct-13 15:59N 37°44' W 025°40'0 0.0
2017-Oct-13 15:29N 37°44' W 025°40'0 0.0
2017-Oct-13 15:00N 37°44' W 025°40'0 0.0
2017-Oct-13 14:29N 37°44' W 025°40'0 0.0
2017-Oct-13 14:00N 37°44' W 025°40'0 0.0
2017-Oct-13 13:29N 37°44' W 025°40'0 0.0
2017-Oct-13 13:00N 37°44' W 025°40'0 0.0
2017-Oct-13 12:29N 37°44' W 025°40'4 7.4
2017-Oct-13 12:00N 37°42' W 025°36'43330.0 150 / 41019.010.8 24.520.223.0
2017-Oct-13 11:59N 37°44' W 025°40'0 0.0
2017-Oct-13 11:29N 37°44' W 025°40'0 0.0
2017-Oct-13 10:59N 37°44' W 025°40'0 0.0
2017-Oct-13 10:29N 37°44' W 025°40'0 0.0
2017-Oct-13 09:58N 37°44' W 025°40'0 0.0
2017-Oct-13 09:29N 37°44' W 025°40'0 0.0
2017-Oct-13 08:59N 37°44' W 025°40'0 0.0
2017-Oct-13 08:28N 37°44' W 025°40'0 0.2
2017-Oct-13 08:00N 37°44' W 025°40'2 3.4
2017-Oct-13 07:30N 37°43' W 025°38'3 5.9
2017-Oct-13 07:00N 37°42' W 025°35'4 8.5
2017-Oct-13 06:30N 37°40' W 025°30'510.8
2017-Oct-13 06:00N 37°41' W 025°23'510.8
2017-Oct-13 05:30N 37°41' W 025°16'510.5
2017-Oct-13 05:00N 37°41' W 025°09'510.7
2017-Oct-13 04:30N 37°42' W 025°03'510.7
2017-Oct-13 04:00N 37°42' W 024°56'510.8
2017-Oct-13 03:30N 37°42' W 024°49'611.3
2017-Oct-13 03:00N 37°43' W 024°42'611.3
2017-Oct-13 02:30N 37°43' W 024°35'611.4
2017-Oct-13 02:00N 37°43' W 024°28'612.2
2017-Oct-13 01:30N 37°44' W 024°20'612.5
2017-Oct-13 01:01N 37°44' W 024°12'612.4
2017-Oct-13 00:30N 37°45' W 024°04'612.6
2017-Oct-13 00:00N 37°45' W 023°56'612.6
2017-Oct-12 23:30N 37°45' W 023°48'612.5
2017-Oct-12 23:00N 37°46' W 023°40'612.6
2017-Oct-12 22:31N 37°46' W 023°32'712.7
2017-Oct-12 21:59N 37°47' W 023°24'612.6
2017-Oct-12 21:30N 37°47' W 023°16'612.8
2017-Oct-12 21:00N 37°47' W 023°08'712.8
2017-Oct-12 20:30N 37°48' W 023°00'612.4
2017-Oct-12 20:00N 37°48' W 022°53'612.7
2017-Oct-12 19:30N 37°49' W 022°44'612.9
2017-Oct-12 19:00N 37°49' W 022°36'713.4
2017-Oct-12 18:30N 37°50' W 022°28'713.4
2017-Oct-12 18:00N 37°50' W 022°19'713.4
2017-Oct-12 17:30N 37°51' W 022°11'713.5
2017-Oct-12 17:00N 37°51' W 022°02'713.6
2017-Oct-12 16:28N 37°52' W 021°53'613.7
2017-Oct-12 16:00N 37°52' W 021°45'713.7
2017-Oct-12 15:30N 37°52' W 021°36'713.6
2017-Oct-12 15:00N 37°53' W 021°28'713.7
2017-Oct-12 14:30N 37°53' W 021°19'713.7
2017-Oct-12 14:00N 37°54' W 021°11'713.7
2017-Oct-12 13:30N 37°54' W 021°02'713.9
2017-Oct-12 13:00N 37°55' W 020°53'713.8
2017-Oct-12 12:30N 37°55' W 020°44'713.9
2017-Oct-12 12:00N 37°55' W 020°36'5284.2
2017-Oct-12 12:00N 37°54' W 020°30'3 6.0 110 / 101022.010.8 22.017.622.5
2017-Oct-12 11:29N 37°56' W 020°27'713.8
2017-Oct-12 11:00N 37°56' W 020°18'713.9
2017-Oct-12 10:30N 37°57' W 020°10'813.9
2017-Oct-12 09:55N 37°57' W 019°59'613.8
2017-Oct-12 09:30N 37°58' W 019°52'713.8
2017-Oct-12 09:00N 37°58' W 019°43'1613.5
2017-Oct-12 07:50N 37°59' W 019°23'613.5
2017-Oct-12 07:25N 37°60' W 019°16'613.4
2017-Oct-12 07:00N 38°00' W 019°09'713.5
2017-Oct-12 06:30N 38°01' W 019°01'1013.4
2017-Oct-12 05:47N 38°01' W 018°49'1013.4
2017-Oct-12 05:01N 38°02' W 018°35'0 9.1
2017-Oct-12 05:00N 38°02' W 018°35'713.4
2017-Oct-12 04:30N 38°02' W 018°27'713.2
2017-Oct-12 04:00N 38°03' W 018°18'713.6
2017-Oct-12 03:31N 38°03' W 018°10'713.9
2017-Oct-12 03:00N 38°03' W 018°01'913.2
2017-Oct-12 02:18N 38°04' W 017°49'413.5
2017-Oct-12 02:00N 38°04' W 017°44'713.3
2017-Oct-12 01:30N 38°05' W 017°36'713.2
2017-Oct-12 01:00N 38°05' W 017°27'713.0
2017-Oct-12 00:30N 38°06' W 017°19'813.1
2017-Oct-11 23:55N 38°06' W 017°09'4013.2
2017-Oct-11 20:52N 38°09' W 016°18'1113.2
2017-Oct-11 20:02N 38°10' W 016°04'113.2
2017-Oct-11 19:59N 38°10' W 016°04'813.5
2017-Oct-11 19:23N 38°10' W 015°53'613.8
2017-Oct-11 18:58N 38°11' W 015°46'2613.5
2017-Oct-11 17:02N 38°12' W 015°13'012.4
2017-Oct-11 17:00N 38°12' W 015°12'22913.5
2017-Oct-11 00:00N 38°27' W 010°21'713.6
2017-Oct-10 23:30N 38°28' W 010°12'713.0
2017-Oct-10 23:00N 38°29' W 010°04'510.4
2017-Oct-10 22:30N 38°30' W 009°57'713.2
2017-Oct-10 22:00N 38°32' W 009°49'510.2
2017-Oct-10 21:30N 38°33' W 009°43'713.4
2017-Oct-10 21:00N 38°34' W 009°35'713.5
2017-Oct-10 20:30N 38°36' W 009°26'713.3
2017-Oct-10 20:00N 38°40' W 009°19'612.6
2017-Oct-10 19:31N 38°41' W 009°11'4 7.1
2017-Oct-10 19:01N 38°43' W 009°07'0 0.0
2017-Oct-10 18:30N 38°43' W 009°07'0 0.0
2017-Oct-10 18:00N 38°43' W 009°07'0 0.0
2017-Oct-10 17:30N 38°43' W 009°07'0 0.0
2017-Oct-10 16:57N 38°43' W 009°07'0 0.0
2017-Oct-10 16:30N 38°43' W 009°07'0 0.0
2017-Oct-10 16:00N 38°43' W 009°07'0 0.0
2017-Oct-10 15:30N 38°43' W 009°07'0 0.0
2017-Oct-10 15:00N 38°43' W 009°07'0 0.0
2017-Oct-10 14:00N 38°43' W 009°07'0 0.0
2017-Oct-10 13:30N 38°43' W 009°07'0 0.0
2017-Oct-10 12:57N 38°43' W 009°07'0 0.0
2017-Oct-10 12:30N 38°43' W 009°07'1 2.5
2017-Oct-10 12:00N 38°42' W 009°06'114.1 1021.0 2.2 19.012.017.0
2017-Oct-10 11:54N 38°43' W 009°07'0 0.0
2017-Oct-10 11:30N 38°43' W 009°07'0 0.0
2017-Oct-10 10:57N 38°43' W 009°07'0 0.0
2017-Oct-10 10:27N 38°43' W 009°07'0 0.0
2017-Oct-10 09:59N 38°43' W 009°07'0 0.0
2017-Oct-10 09:29N 38°43' W 009°07'0 0.0
2017-Oct-10 08:58N 38°43' W 009°07'0 0.0
2017-Oct-10 08:27N 38°43' W 009°07'0 0.0
2017-Oct-10 08:00N 38°43' W 009°07'0 0.0
2017-Oct-10 07:30N 38°43' W 009°07'0 0.2
2017-Oct-10 07:00N 38°43' W 009°07'3 5.3
2017-Oct-10 06:30N 38°41' W 009°10'3 6.7
2017-Oct-10 06:00N 38°41' W 009°14'510.4
2017-Oct-10 05:30N 38°39' W 009°20'3 6.6
2017-Oct-10 05:00N 38°39' W 009°25'5 9.1
2017-Oct-10 04:30N 38°39' W 009°30'510.8
2017-Oct-10 04:00N 38°39' W 009°37'5 9.5
2017-Oct-10 03:30N 38°42' W 009°42'612.0
2017-Oct-10 03:00N 38°48' W 009°42'612.2
2017-Oct-10 02:30N 38°54' W 009°43'612.9
2017-Oct-10 02:00N 39°01' W 009°44'612.6
2017-Oct-10 01:30N 39°07' W 009°44'713.0
2017-Oct-10 01:00N 39°13' W 009°44'613.0
2017-Oct-10 00:30N 39°20' W 009°45'612.9
2017-Oct-10 00:00N 39°26' W 009°45'714.2
2017-Oct-09 23:30N 39°33' W 009°44'1313.3
2017-Oct-09 22:30N 39°46' W 009°39'713.1
2017-Oct-09 21:58N 39°53' W 009°35'613.1
2017-Oct-09 21:30N 39°58' W 009°33'713.5
2017-Oct-09 21:00N 40°05' W 009°31'713.4
2017-Oct-09 20:30N 40°11' W 009°29'713.5
2017-Oct-09 20:00N 40°18' W 009°26'1313.4
2017-Oct-09 19:00N 40°31' W 009°20'612.7
2017-Oct-09 18:30N 40°37' W 009°18'713.2
2017-Oct-09 18:01N 40°43' W 009°15'813.1
2017-Oct-09 17:24N 40°50' W 009°12'513.2
2017-Oct-09 17:01N 40°55' W 009°10'713.2
2017-Oct-09 16:30N 41°02' W 009°08'613.0
2017-Oct-09 16:01N 41°08' W 009°05'712.9
2017-Oct-09 15:30N 41°14' W 009°02'  

Dump ship's entire track history